Time;durP1;ratioP1;P1;durP2;ratioP2;P2;SDS_P1;SDS_P2;PMS_P1;PMS_P2;Temp;Humidity;BMP_temperature;BMP_pressure;BME280_temperature;BME280_humidity;BME280_pressure;Samples;Min_cycle;Max_cycle;Signal;HPM_P1;HPM_P2
2023/11/12 00:01:49;;;;;;;7.07;4.22;;;8.70;99.90;;;;;;4989011;28;20034;-85
2023/11/12 00:04:14;;;;;;;6.50;4.47;;;8.80;99.90;;;;;;4991028;28;20034;-86
2023/11/12 00:06:43;;;;;;;6.20;4.55;;;9.00;99.90;;;;;;4988339;28;20030;-86
2023/11/12 00:09:11;;;;;;;6.37;5.43;;;8.70;99.90;;;;;;4987754;28;20153;-86
2023/11/12 00:11:38;;;;;;;5.55;4.95;;;8.70;99.90;;;;;;4975240;28;20274;-86
2023/11/12 00:14:05;;;;;;;7.10;5.57;;;8.80;99.90;;;;;;4987694;28;20082;-86
2023/11/12 00:16:30;;;;;;;8.02;5.05;;;8.90;99.90;;;;;;4991784;28;20029;-86
2023/11/12 00:18:56;;;;;;;7.63;5.40;;;8.70;99.90;;;;;;4992954;28;20117;-86
2023/11/12 00:21:24;;;;;;;6.32;4.93;;;8.70;99.90;;;;;;4992009;28;20475;-86
2023/11/12 00:23:51;;;;;;;6.60;4.68;;;8.70;99.90;;;;;;4977956;28;20455;-86
2023/11/12 00:26:16;;;;;;;11.77;5.60;;;8.70;99.90;;;;;;4975665;28;20049;-87
2023/11/12 00:28:42;;;;;;;11.30;4.95;;;8.70;99.90;;;;;;4972131;28;20027;-86
2023/11/12 00:31:08;;;;;;;13.32;5.43;;;8.70;99.90;;;;;;4976301;28;20097;-86
2023/11/12 00:33:33;;;;;;;6.63;4.85;;;8.70;99.90;;;;;;4983319;28;20058;-86
2023/11/12 00:35:59;;;;;;;9.15;5.72;;;8.70;99.90;;;;;;4973862;28;20459;-86
2023/11/12 00:38:24;;;;;;;12.07;5.20;;;8.60;99.90;;;;;;4976218;28;20031;-86
2023/11/12 00:40:50;;;;;;;11.48;6.57;;;8.60;99.90;;;;;;4980444;28;20025;-86
2023/11/12 00:43:16;;;;;;;8.38;5.43;;;8.60;99.90;;;;;;4991925;28;20483;-86
2023/11/12 00:45:42;;;;;;;7.32;5.38;;;8.60;99.90;;;;;;4992403;28;20023;-87
2023/11/12 00:48:08;;;;;;;6.38;5.78;;;8.60;99.90;;;;;;4992965;28;20039;-86
2023/11/12 00:50:34;;;;;;;13.00;6.18;;;8.50;99.90;;;;;;4995192;28;20113;-86
2023/11/12 00:53:00;;;;;;;10.10;5.72;;;8.60;99.90;;;;;;4992458;28;20034;-86
2023/11/12 00:55:26;;;;;;;6.97;5.65;;;8.50;99.90;;;;;;4977340;28;20023;-86
2023/11/12 00:57:51;;;;;;;9.57;5.78;;;8.50;99.90;;;;;;4991017;28;20062;-86
2023/11/12 01:00:17;;;;;;;7.43;5.82;;;8.50;99.90;;;;;;4993357;28;20129;-86
2023/11/12 01:02:43;;;;;;;10.63;5.72;;;8.50;99.90;;;;;;4977137;28;20093;-86
2023/11/12 01:05:09;;;;;;;9.75;6.18;;;8.50;99.90;;;;;;4994583;28;20032;-87
2023/11/12 01:07:36;;;;;;;6.90;5.55;;;8.40;99.90;;;;;;4986444;28;20070;-86
2023/11/12 01:10:02;;;;;;;8.43;6.05;;;8.40;99.90;;;;;;4996057;28;20030;-85
2023/11/12 01:12:28;;;;;;;14.30;5.45;;;8.30;99.90;;;;;;4989735;28;20026;-86
2023/11/12 01:14:53;;;;;;;15.00;6.65;;;8.40;99.90;;;;;;4993316;28;20113;-86
2023/11/12 01:17:19;;;;;;;9.30;6.10;;;8.30;99.90;;;;;;4988550;28;20050;-86
2023/11/12 01:19:45;;;;;;;8.90;5.25;;;8.30;99.90;;;;;;4995253;28;20351;-86
2023/11/12 01:22:11;;;;;;;7.18;5.18;;;9.00;99.90;;;;;;4981310;28;20073;-86
2023/11/12 01:24:37;;;;;;;10.32;6.20;;;8.30;99.90;;;;;;4990854;28;20076;-86
2023/11/12 01:27:03;;;;;;;10.27;5.90;;;8.30;99.90;;;;;;4995622;28;20042;-87
2023/11/12 01:29:29;;;;;;;9.30;6.20;;;8.30;99.90;;;;;;4989361;28;20030;-86
2023/11/12 01:31:54;;;;;;;8.38;5.65;;;8.20;99.90;;;;;;4999502;28;20334;-85
2023/11/12 01:34:21;;;;;;;11.07;5.75;;;8.20;99.90;;;;;;4987576;28;20057;-86
2023/11/12 01:36:47;;;;;;;10.43;6.50;;;8.80;99.90;;;;;;4997485;28;20080;-86
2023/11/12 01:39:13;;;;;;;9.45;6.00;;;8.30;99.90;;;;;;4987566;28;20030;-86
2023/11/12 01:41:39;;;;;;;12.10;6.68;;;8.30;99.90;;;;;;4979399;28;20041;-86
2023/11/12 01:44:05;;;;;;;7.28;6.55;;;8.20;99.90;;;;;;4995769;28;20366;-86
2023/11/12 01:46:30;;;;;;;9.50;7.00;;;8.20;99.90;;;;;;4984565;28;20046;-89
2023/11/12 01:48:57;;;;;;;8.13;6.78;;;8.30;99.90;;;;;;4995247;28;20502;-87
2023/11/12 01:51:24;;;;;;;7.53;6.30;;;8.30;99.90;;;;;;4993335;28;20523;-87
2023/11/12 01:53:50;;;;;;;11.85;7.13;;;8.30;99.90;;;;;;4975812;28;20027;-87
2023/11/12 01:56:18;;;;;;;8.95;6.63;;;8.30;99.90;;;;;;4975894;28;20038;-86
2023/11/12 01:58:44;;;;;;;13.13;6.80;;;8.30;99.90;;;;;;4983762;28;20056;-87
2023/11/12 02:01:14;;;;;;;13.52;6.60;;;8.30;99.90;;;;;;4983296;28;20077;-86
2023/11/12 02:03:41;;;;;;;11.23;6.97;;;8.30;99.90;;;;;;4988850;28;20585;-86
2023/11/12 02:06:08;;;;;;;11.32;6.78;;;8.30;99.90;;;;;;4978053;28;20035;-86
2023/11/12 02:08:35;;;;;;;7.78;6.72;;;8.30;99.90;;;;;;4985311;28;20117;-86
2023/11/12 02:11:07;;;;;;;9.82;7.15;;;8.30;99.90;;;;;;4977085;28;20022;-85
2023/11/12 02:13:34;;;;;;;12.88;7.53;;;8.30;99.90;;;;;;4983393;28;20043;-86
2023/11/12 02:16:01;;;;;;;8.30;6.57;;;8.30;99.90;;;;;;4985871;28;20027;-85
2023/11/12 02:18:27;;;;;;;7.80;7.07;;;8.30;99.90;;;;;;4992935;28;20088;-86
2023/11/12 02:20:52;;;;;;;10.65;7.53;;;8.40;99.90;;;;;;4993763;28;20026;-87
2023/11/12 02:23:18;;;;;;;8.70;6.97;;;8.40;99.90;;;;;;5002594;28;20072;-86
2023/11/12 02:25:45;;;;;;;10.80;6.82;;;8.40;99.90;;;;;;4997157;28;20490;-86
2023/11/12 02:28:12;;;;;;;7.93;7.10;;;8.40;99.90;;;;;;4991104;28;20034;-86
2023/11/12 02:30:39;;;;;;;7.15;6.45;;;8.40;99.90;;;;;;4994157;28;20110;-84
2023/11/12 02:33:06;;;;;;;8.77;7.03;;;8.70;99.90;;;;;;4986345;28;20054;-85
2023/11/12 02:35:32;;;;;;;7.75;6.38;;;8.40;99.90;;;;;;4975099;28;20122;-87
2023/11/12 02:37:58;;;;;;;8.82;6.63;;;8.50;99.90;;;;;;4977734;28;20039;-87
2023/11/12 02:40:24;;;;;;;7.63;6.90;;;8.50;99.90;;;;;;4974522;28;20027;-85
2023/11/12 02:42:50;;;;;;;10.85;6.68;;;8.50;99.90;;;;;;4980736;28;20080;-87
2023/11/12 02:45:16;;;;;;;9.43;7.80;;;8.50;99.90;;;;;;4994959;28;20059;-85
2023/11/12 02:47:43;;;;;;;12.75;7.90;;;8.50;99.90;;;;;;4996865;28;20180;-87
2023/11/12 02:50:34;;;;;;;10.23;7.28;;;8.50;99.90;;;;;;4990768;28;20035;-87
2023/11/12 02:53:01;;;;;;;12.15;7.75;;;8.60;99.90;;;;;;4990801;28;20033;-88
2023/11/12 02:55:30;;;;;;;12.15;7.53;;;8.60;99.90;;;;;;4995498;28;20033;-85
2023/11/12 02:57:57;;;;;;;9.30;7.43;;;8.60;99.90;;;;;;4991993;28;20029;-86
2023/11/12 03:00:27;;;;;;;11.38;7.32;;;8.60;99.90;;;;;;4986179;28;20095;-85
2023/11/12 03:02:53;;;;;;;9.77;6.75;;;8.60;99.90;;;;;;4980480;28;20145;-85
2023/11/12 03:05:20;;;;;;;7.63;6.88;;;9.40;99.90;;;;;;4993157;28;20041;-86
2023/11/12 03:07:45;;;;;;;10.77;7.57;;;9.60;99.90;;;;;;4990402;28;20030;-88
2023/11/12 03:10:11;;;;;;;9.05;6.88;;;8.60;99.90;;;;;;4979944;28;20031;-87
2023/11/12 03:12:38;;;;;;;7.43;6.72;;;8.60;99.90;;;;;;4978528;28;20034;-88
2023/11/12 03:15:06;;;;;;;10.57;6.95;;;8.60;99.90;;;;;;4993176;28;20109;-87
2023/11/12 03:17:33;;;;;;;9.88;7.72;;;8.60;99.90;;;;;;4980489;28;20039;-86
2023/11/12 03:19:58;;;;;;;9.38;7.45;;;8.60;99.90;;;;;;4974446;28;20026;-87
2023/11/12 03:22:24;;;;;;;13.90;7.25;;;9.10;99.90;;;;;;4975646;28;20041;-86
2023/11/12 03:24:50;;;;;;;8.02;7.20;;;8.60;99.90;;;;;;5012101;28;20018;-86
2023/11/12 03:27:16;;;;;;;12.73;7.70;;;8.60;99.90;;;;;;5009972;28;20087;-86
2023/11/12 03:29:42;;;;;;;8.80;7.15;;;8.60;99.90;;;;;;4991292;28;20502;-87
2023/11/12 03:32:07;;;;;;;11.68;7.22;;;8.50;99.90;;;;;;4992660;28;20030;-86
2023/11/12 03:34:33;;;;;;;11.07;7.63;;;9.20;99.90;;;;;;4993761;28;20026;-85
2023/11/12 03:36:58;;;;;;;10.82;7.47;;;8.40;99.90;;;;;;4983140;28;20045;-87
2023/11/12 03:39:24;;;;;;;10.52;8.23;;;8.50;99.90;;;;;;4987678;28;20126;-86
2023/11/12 03:41:50;;;;;;;8.52;6.93;;;8.50;99.90;;;;;;4977589;28;20041;-86
2023/11/12 03:44:16;;;;;;;10.32;7.68;;;8.50;99.90;;;;;;5000514;28;20116;-86
2023/11/12 03:46:42;;;;;;;16.42;8.40;;;8.50;99.90;;;;;;4999805;28;20539;-86
2023/11/12 03:49:07;;;;;;;11.88;7.47;;;8.50;99.90;;;;;;4974496;28;20486;-86
2023/11/12 03:51:33;;;;;;;10.65;7.88;;;8.60;99.90;;;;;;4979256;28;20082;-86
2023/11/12 03:54:01;;;;;;;9.07;7.80;;;8.60;99.90;;;;;;4985331;28;20031;-87
2023/11/12 03:56:28;;;;;;;12.15;8.48;;;8.50;99.90;;;;;;4997583;28;20061;-86
2023/11/12 03:58:55;;;;;;;13.10;8.20;;;8.50;99.90;;;;;;4986181;28;20085;-87
2023/11/12 04:01:20;;;;;;;10.20;7.95;;;8.50;99.90;;;;;;4973001;28;20047;-86
2023/11/12 04:03:46;;;;;;;9.80;7.03;;;8.50;99.90;;;;;;4980708;28;20050;-87
2023/11/12 04:06:11;;;;;;;9.82;8.85;;;8.50;99.90;;;;;;4982396;28;20118;-87
2023/11/12 04:08:37;;;;;;;13.98;8.50;;;8.50;99.90;;;;;;4977592;28;20038;-87
2023/11/12 04:11:03;;;;;;;10.98;8.27;;;8.50;99.90;;;;;;4991915;28;20019;-87
2023/11/12 04:13:28;;;;;;;12.20;9.30;;;8.50;99.90;;;;;;4992252;28;20037;-88
2023/11/12 04:15:54;;;;;;;13.55;8.80;;;8.60;99.90;;;;;;4997280;28;20030;-87
2023/11/12 04:18:20;;;;;;;9.13;7.78;;;8.60;99.90;;;;;;4992802;28;20033;-87
2023/11/12 04:20:45;;;;;;;14.85;9.38;;;8.50;99.90;;;;;;4992360;28;20491;-87
2023/11/12 04:23:11;;;;;;;9.52;8.52;;;8.50;99.90;;;;;;4985120;28;20030;-86
2023/11/12 04:25:37;;;;;;;9.02;8.13;;;8.50;99.90;;;;;;4977408;28;20030;-86
2023/11/12 04:28:03;;;;;;;9.05;8.18;;;8.50;99.90;;;;;;4986091;28;20042;-86
2023/11/12 04:30:29;;;;;;;10.63;8.65;;;8.50;99.90;;;;;;4980045;28;20071;-85
2023/11/12 04:32:55;;;;;;;10.70;8.43;;;8.50;99.90;;;;;;4978711;28;20077;-86
2023/11/12 04:35:22;;;;;;;13.18;8.77;;;8.50;99.90;;;;;;4976147;28;20023;-86
2023/11/12 04:37:47;;;;;;;16.98;9.35;;;8.50;99.90;;;;;;4988179;28;20034;-86
2023/11/12 04:40:15;;;;;;;14.15;8.98;;;8.50;99.90;;;;;;4979791;28;20049;-86
2023/11/12 04:42:41;;;;;;;11.95;8.68;;;8.40;99.90;;;;;;4978353;28;20035;-86
2023/11/12 04:45:07;;;;;;;11.93;9.90;;;8.40;99.90;;;;;;4985841;28;20037;-87
2023/11/12 04:47:32;;;;;;;11.82;8.93;;;8.40;99.90;;;;;;4983168;28;20038;-86
2023/11/12 04:49:59;;;;;;;10.50;9.40;;;8.40;99.90;;;;;;4977031;28;20110;-86
2023/11/12 04:52:24;;;;;;;12.65;8.30;;;8.40;99.90;;;;;;4976546;28;20035;-88
2023/11/12 04:54:50;;;;;;;9.23;8.35;;;8.40;99.90;;;;;;4976651;28;20430;-87
2023/11/12 04:57:19;;;;;;;9.38;8.48;;;8.40;99.90;;;;;;4975774;28;20447;-88
2023/11/12 04:59:45;;;;;;;12.50;9.38;;;8.40;99.90;;;;;;4983686;28;20022;-88
2023/11/12 05:02:12;;;;;;;11.68;8.65;;;8.40;99.90;;;;;;4980348;28;20030;-87
2023/11/12 05:04:38;;;;;;;11.15;9.05;;;8.40;99.90;;;;;;4992348;28;20221;-88
2023/11/12 05:07:05;;;;;;;9.50;8.57;;;8.30;99.90;;;;;;4996184;28;20116;-88
2023/11/12 05:09:31;;;;;;;12.15;9.57;;;8.40;99.90;;;;;;5002189;28;20105;-88
2023/11/12 05:11:56;;;;;;;18.02;10.05;;;8.30;99.90;;;;;;5015094;28;20176;-87
2023/11/12 05:14:22;;;;;;;12.13;9.45;;;8.30;99.90;;;;;;4991509;28;20031;-86
2023/11/12 05:16:48;;;;;;;12.10;9.95;;;8.30;99.90;;;;;;4995150;28;20494;-87
2023/11/12 05:19:13;;;;;;;11.10;9.48;;;8.30;99.90;;;;;;4996033;28;20025;-87
2023/11/12 05:21:45;;;;;;;14.38;10.48;;;8.30;99.90;;;;;;4982941;28;21055;-86
2023/11/12 05:24:12;;;;;;;11.75;10.05;;;8.30;99.90;;;;;;4980363;28;20387;-86
2023/11/12 05:26:38;;;;;;;12.35;9.93;;;8.20;99.90;;;;;;4983409;28;20043;-88
2023/11/12 05:29:04;;;;;;;17.73;10.63;;;8.20;99.90;;;;;;4986619;28;20033;-87
2023/11/12 05:31:32;;;;;;;15.60;10.60;;;8.20;99.90;;;;;;4994365;28;20080;-86
2023/11/12 05:34:02;;;;;;;13.05;9.73;;;8.20;99.90;;;;;;4995464;28;20121;-86
2023/11/12 05:36:27;;;;;;;17.63;10.52;;;8.20;99.90;;;;;;4980557;28;20082;-86
2023/11/12 05:38:54;;;;;;;19.98;11.18;;;8.20;99.90;;;;;;4976930;28;20030;-86
2023/11/12 05:41:19;;;;;;;13.73;10.00;;;8.20;99.90;;;;;;4994828;28;20025;-86
2023/11/12 05:43:46;;;;;;;15.23;10.30;;;8.20;99.90;;;;;;4985308;28;20030;-86
2023/11/12 05:46:12;;;;;;;11.05;9.35;;;8.20;99.90;;;;;;4983809;28;20042;-87
2023/11/12 05:48:38;;;;;;;14.40;10.32;;;8.20;99.90;;;;;;4994960;28;20096;-86
2023/11/12 05:51:04;;;;;;;14.93;9.18;;;8.20;99.90;;;;;;4995066;28;20046;-86
2023/11/12 05:53:29;;;;;;;25.27;10.68;;;8.20;99.90;;;;;;4989324;28;20032;-85
2023/11/12 05:55:55;;;;;;;11.45;9.38;;;8.20;99.90;;;;;;4975979;28;20534;-86
2023/11/12 05:58:20;;;;;;;20.50;9.40;;;8.20;99.90;;;;;;4988434;28;20422;-86
2023/11/12 06:00:46;;;;;;;13.20;9.30;;;8.60;99.90;;;;;;4992066;28;20471;-86
2023/11/12 06:03:12;;;;;;;16.90;9.98;;;8.20;99.90;;;;;;4975610;28;20025;-86
2023/11/12 06:05:37;;;;;;;14.73;10.35;;;8.20;99.90;;;;;;4982167;28;20122;-87
2023/11/12 06:08:03;;;;;;;12.73;9.85;;;8.20;99.90;;;;;;4975124;28;20475;-86
2023/11/12 06:10:29;;;;;;;11.43;9.85;;;8.10;99.90;;;;;;4987285;28;20084;-87
2023/11/12 06:12:56;;;;;;;15.82;11.38;;;8.10;99.90;;;;;;4990554;28;20038;-87
2023/11/12 06:15:26;;;;;;;13.25;9.35;;;8.10;99.90;;;;;;4994981;28;20092;-86
2023/11/12 06:17:52;;;;;;;17.00;10.20;;;8.10;99.90;;;;;;4998994;28;20033;-87
2023/11/12 06:20:18;;;;;;;16.55;10.43;;;8.10;99.90;;;;;;4974569;28;20048;-86
2023/11/12 06:22:43;;;;;;;22.17;10.25;;;8.30;99.90;;;;;;5006599;28;20030;-86
2023/11/12 06:25:11;;;;;;;18.30;10.60;;;8.00;99.90;;;;;;4994193;28;20557;-87
2023/11/12 06:27:38;;;;;;;18.00;10.52;;;8.00;99.90;;;;;;4991286;28;20486;-86
2023/11/12 06:30:04;;;;;;;14.15;9.98;;;8.00;99.90;;;;;;4986686;28;20462;-87
2023/11/12 06:32:30;;;;;;;15.95;11.57;;;8.10;99.90;;;;;;4993754;28;20037;-86
2023/11/12 06:34:55;;;;;;;14.75;10.02;;;8.10;99.90;;;;;;4978832;28;20382;-87
2023/11/12 06:37:21;;;;;;;16.17;10.45;;;8.10;99.90;;;;;;4987385;28;20022;-86
2023/11/12 06:39:47;;;;;;;13.63;10.02;;;8.10;99.90;;;;;;4992765;28;20502;-87
2023/11/12 06:42:12;;;;;;;12.77;10.45;;;8.10;99.90;;;;;;4985065;28;20093;-87
2023/11/12 06:44:38;;;;;;;14.82;11.02;;;8.10;99.90;;;;;;4976572;28;20109;-87
2023/11/12 06:47:04;;;;;;;16.38;10.23;;;8.10;99.90;;;;;;4979966;28;20114;-86
2023/11/12 06:49:31;;;;;;;11.60;9.77;;;8.10;99.90;;;;;;4976775;28;20130;-87
2023/11/12 06:51:57;;;;;;;18.45;10.48;;;8.00;99.90;;;;;;4991290;28;20057;-87
2023/11/12 06:54:23;;;;;;;16.92;10.60;;;8.00;99.90;;;;;;4975346;28;20542;-87
2023/11/12 06:56:49;;;;;;;14.38;10.00;;;8.00;99.90;;;;;;4973676;28;20023;-86
2023/11/12 06:59:14;;;;;;;14.30;9.75;;;7.90;99.90;;;;;;4981914;28;20034;-86
2023/11/12 07:01:41;;;;;;;12.73;10.15;;;7.90;99.90;;;;;;4990775;28;20038;-87
2023/11/12 07:04:06;;;;;;;15.10;9.70;;;7.90;99.90;;;;;;4983407;28;20062;-85
2023/11/12 07:06:32;;;;;;;13.38;10.48;;;7.90;99.90;;;;;;4974865;28;20034;-88
2023/11/12 07:08:58;;;;;;;14.48;10.35;;;7.90;99.90;;;;;;4990843;28;20045;-86
2023/11/12 07:11:24;;;;;;;12.68;10.10;;;8.00;99.90;;;;;;4991320;28;20034;-86
2023/11/12 07:13:50;;;;;;;15.32;10.13;;;7.90;99.90;;;;;;4993644;28;20536;-88
2023/11/12 07:16:16;;;;;;;11.80;9.20;;;7.90;99.90;;;;;;4992500;28;20479;-87
2023/11/12 07:18:42;;;;;;;12.88;9.50;;;7.90;99.90;;;;;;4989020;28;20026;-87
2023/11/12 07:21:08;;;;;;;13.60;9.43;;;8.50;99.90;;;;;;4992098;28;20394;-87
2023/11/12 07:23:36;;;;;;;17.15;10.05;;;7.90;99.90;;;;;;4988609;28;20037;-87
2023/11/12 07:26:01;;;;;;;12.15;10.00;;;8.00;99.90;;;;;;4992187;28;20096;-88
2023/11/12 07:28:27;;;;;;;11.40;8.70;;;8.00;99.90;;;;;;4988450;28;20487;-88
2023/11/12 07:30:52;;;;;;;18.95;9.20;;;8.00;99.90;;;;;;4991138;28;20481;-88
2023/11/12 07:33:18;;;;;;;13.73;8.73;;;8.00;99.90;;;;;;4989653;28;20027;-87
2023/11/12 07:35:43;;;;;;;13.10;9.48;;;8.00;99.90;;;;;;4991621;28;20034;-87
2023/11/12 07:38:09;;;;;;;10.98;9.85;;;8.00;99.90;;;;;;4990185;28;20077;-87
2023/11/12 07:40:35;;;;;;;12.27;9.20;;;8.00;99.90;;;;;;4991059;28;20441;-87
2023/11/12 07:43:00;;;;;;;11.43;8.65;;;8.00;99.90;;;;;;4989564;28;20057;-88
2023/11/12 07:45:26;;;;;;;9.65;8.27;;;8.00;99.90;;;;;;4990310;28;20029;-87
2023/11/12 07:47:51;;;;;;;11.60;9.68;;;8.00;99.90;;;;;;4989640;28;20073;-87
2023/11/12 07:50:17;;;;;;;12.65;8.68;;;8.00;99.90;;;;;;4990402;28;20104;-88
2023/11/12 07:52:42;;;;;;;10.63;9.07;;;8.00;99.90;;;;;;4989714;28;20202;-87
2023/11/12 07:55:09;;;;;;;12.93;9.95;;;7.90;99.90;;;;;;4991626;28;20088;-89
2023/11/12 07:57:35;;;;;;;13.15;9.23;;;8.00;99.90;;;;;;4990192;28;20038;-88
2023/11/12 08:00:00;;;;;;;11.52;10.02;;;8.00;99.90;;;;;;4991009;28;20025;-89
2023/11/12 08:02:26;;;;;;;17.23;10.30;;;8.00;99.90;;;;;;4990892;28;20052;-87
2023/11/12 08:04:52;;;;;;;12.75;9.77;;;8.00;99.90;;;;;;4990541;28;20030;-88
2023/11/12 08:07:17;;;;;;;11.60;10.35;;;8.00;99.90;;;;;;4993855;28;20034;-88
2023/11/12 08:09:46;;;;;;;14.02;10.63;;;8.00;99.90;;;;;;4992999;28;20682;-88
2023/11/12 08:12:13;;;;;;;12.75;10.13;;;8.00;99.90;;;;;;4991769;28;20049;-87
2023/11/12 08:14:40;;;;;;;12.07;10.50;;;8.00;99.90;;;;;;4988562;28;20107;-88
2023/11/12 08:17:05;;;;;;;17.30;10.77;;;8.10;99.90;;;;;;4991814;28;20030;-88
2023/11/12 08:19:31;;;;;;;19.20;11.10;;;8.10;99.90;;;;;;4986202;28;20030;-88
2023/11/12 08:21:56;;;;;;;14.45;11.48;;;8.10;99.90;;;;;;4990716;28;20026;-89
2023/11/12 08:24:22;;;;;;;20.45;10.77;;;8.10;99.90;;;;;;4989912;28;20114;-87
2023/11/12 08:26:47;;;;;;;14.38;11.15;;;8.30;99.90;;;;;;4991061;28;20161;-87
2023/11/12 08:29:13;;;;;;;18.95;11.50;;;8.10;99.90;;;;;;4989611;28;20030;-87
2023/11/12 08:31:39;;;;;;;15.40;11.48;;;8.10;99.90;;;;;;4990809;28;20034;-86
2023/11/12 08:34:05;;;;;;;23.27;11.90;;;8.20;99.90;;;;;;4988375;28;20027;-85
2023/11/12 08:36:31;;;;;;;15.88;11.93;;;8.20;99.90;;;;;;4983966;28;20038;-86
2023/11/12 08:38:57;;;;;;;12.90;10.55;;;8.20;99.90;;;;;;4985186;28;20026;-86
2023/11/12 08:41:22;;;;;;;15.43;10.50;;;8.20;99.90;;;;;;4995150;28;20030;-85
2023/11/12 08:43:49;;;;;;;15.20;11.65;;;8.20;99.90;;;;;;4986771;28;20030;-89
2023/11/12 08:46:15;;;;;;;13.77;12.20;;;8.20;99.90;;;;;;4991013;28;20050;-89
2023/11/12 08:48:44;;;;;;;14.10;12.65;;;9.20;99.90;;;;;;4991453;28;20504;-88
2023/11/12 08:51:11;;;;;;;17.52;11.70;;;8.20;99.90;;;;;;4987407;28;20061;-86
2023/11/12 08:53:39;;;;;;;16.42;12.27;;;8.30;99.90;;;;;;4984876;28;20487;-84
2023/11/12 08:56:05;;;;;;;17.70;13.43;;;8.30;99.90;;;;;;4989216;28;20038;-83
2023/11/12 08:58:30;;;;;;;18.70;13.95;;;8.30;99.90;;;;;;4992386;28;20030;-85
2023/11/12 09:00:57;;;;;;;17.67;13.73;;;8.30;99.90;;;;;;4992076;28;20108;-86
2023/11/12 09:03:23;;;;;;;16.95;13.13;;;8.30;99.90;;;;;;4990472;28;20034;-84
2023/11/12 09:05:48;;;;;;;20.52;14.80;;;8.30;99.90;;;;;;4990299;28;20027;-88
2023/11/12 09:08:15;;;;;;;23.60;17.08;;;8.30;99.90;;;;;;4990556;28;20045;-85
2023/11/12 09:10:41;;;;;;;20.75;16.50;;;9.20;99.90;;;;;;4994370;28;20065;-89
2023/11/12 09:13:09;;;;;;;20.90;15.80;;;8.30;99.90;;;;;;4994837;28;20038;-91
2023/11/12 09:15:36;;;;;;;22.98;15.48;;;8.30;99.90;;;;;;4998889;28;20062;-91
2023/11/12 09:18:02;;;;;;;24.13;16.42;;;8.60;99.90;;;;;;4995483;28;20109;-89
2023/11/12 09:20:28;;;;;;;23.88;17.20;;;8.20;99.90;;;;;;4992810;28;20030;-86
2023/11/12 09:22:57;;;;;;;24.30;17.02;;;8.20;99.90;;;;;;4996039;28;20038;-89
2023/11/12 09:25:22;;;;;;;26.38;17.85;;;8.40;99.90;;;;;;4994162;28;20038;-85
2023/11/12 09:28:06;;;;;;;25.15;18.08;;;8.30;99.90;;;;;;4993236;28;20165;-86
2023/11/12 09:30:56;;;;;;;26.10;18.52;;;8.30;99.90;;;;;;4998254;28;20505;-87
2023/11/12 09:33:40;;;;;;;35.83;21.67;;;8.70;99.90;;;;;;4991944;28;20027;-90
2023/11/12 09:36:15;;;;;;;33.85;22.30;;;9.30;99.90;;;;;;4991365;28;20034;-90
2023/11/12 09:38:44;;;;;;;33.90;22.63;;;8.80;99.90;;;;;;4994588;28;20060;-91
2023/11/12 09:41:10;;;;;;;32.65;22.45;;;9.30;99.90;;;;;;4993217;28;20031;-90
2023/11/12 09:43:41;;;;;;;31.20;21.63;;;9.90;99.90;;;;;;4994360;28;20581;-90
2023/11/12 09:46:24;;;;;;;38.85;23.23;;;9.10;99.90;;;;;;4989127;28;20111;-89
2023/11/12 09:49:04;;;;;;;43.00;24.23;;;8.10;99.90;;;;;;4994913;28;20051;-91
2023/11/12 09:52:22;;;;;;;44.63;24.33;;;8.10;99.90;;;;;;4992912;28;20054;-86
2023/11/12 09:54:49;;;;;;;43.00;24.35;;;8.40;99.90;;;;;;4986778;28;20035;-86
2023/11/12 09:57:15;;;;;;;37.60;21.23;;;8.90;99.90;;;;;;4997920;28;20042;-91
2023/11/12 09:59:59;;;;;;;39.30;22.60;;;8.80;99.90;;;;;;5002638;28;20081;-89
2023/11/12 10:02:31;;;;;;;35.65;20.70;;;9.20;99.90;;;;;;4994888;28;20573;-89
2023/11/12 10:07:44;;;;;;;35.58;20.85;;;7.40;99.90;;;;;;5001196;28;20042;-90
2023/11/12 10:10:23;;;;;;;42.75;23.33;;;7.40;99.90;;;;;;4999057;28;20042;-90
2023/11/12 10:13:04;;;;;;;37.78;20.73;;;7.80;99.90;;;;;;4995589;28;20076;-88
2023/11/12 10:15:35;;;;;;;37.35;21.10;;;8.80;99.90;;;;;;4996751;28;20030;-88
2023/11/12 10:18:02;;;;;;;33.30;20.52;;;9.30;99.90;;;;;;5003336;28;20466;-86
2023/11/12 10:20:49;;;;;;;29.92;18.52;;;7.80;99.90;;;;;;4991258;28;20026;-90
2023/11/12 10:23:21;;;;;;;25.50;17.13;;;9.20;99.90;;;;;;4990379;28;20058;-91
2023/11/12 10:25:50;;;;;;;27.65;17.98;;;7.70;99.90;;;;;;4987460;28;20035;-92
2023/11/12 10:28:19;;;;;;;21.90;17.05;;;7.80;99.90;;;;;;4993749;28;20070;-91
2023/11/12 10:30:53;;;;;;;21.30;15.50;;;8.50;99.90;;;;;;4993502;28;20084;-89
2023/11/12 10:33:27;;;;;;;25.08;15.20;;;8.50;99.90;;;;;;4981651;28;20081;-90
2023/11/12 10:35:55;;;;;;;21.02;15.63;;;7.70;99.90;;;;;;4984346;28;20403;-88
2023/11/12 10:38:22;;;;;;;18.10;14.13;;;7.60;99.90;;;;;;4986449;28;20045;-89
2023/11/12 10:41:05;;;;;;;19.27;14.38;;;7.60;99.90;;;;;;4989861;28;20084;-89
2023/11/12 10:43:32;;;;;;;16.48;13.45;;;7.60;99.90;;;;;;4992628;28;20710;-87
2023/11/12 10:46:00;;;;;;;14.55;12.60;;;7.70;99.90;;;;;;4986574;28;20475;-87
2023/11/12 10:48:31;;;;;;;15.30;12.02;;;7.70;99.90;;;;;;4989281;28;20053;-91
2023/11/12 10:51:00;;;;;;;14.32;11.18;;;7.70;99.90;;;;;;4990260;28;20130;-91
2023/11/12 10:53:27;;;;;;;11.90;10.60;;;7.70;99.90;;;;;;4988642;28;20405;-90
2023/11/12 10:55:54;;;;;;;14.68;11.32;;;7.70;99.90;;;;;;4987064;28;20030;-89
2023/11/12 10:58:21;;;;;;;13.45;11.82;;;7.70;99.90;;;;;;4989908;28;20034;-90
2023/11/12 11:00:47;;;;;;;13.82;11.40;;;7.80;99.90;;;;;;4995830;28;20030;-91
2023/11/12 11:03:14;;;;;;;16.48;12.40;;;7.80;99.90;;;;;;5004491;28;20034;-92
2023/11/12 11:05:41;;;;;;;16.10;12.10;;;7.60;99.90;;;;;;4994530;28;20037;-91
2023/11/12 11:08:07;;;;;;;17.85;11.02;;;7.60;99.90;;;;;;4989342;28;20112;-91
2023/11/12 11:10:34;;;;;;;16.55;11.65;;;7.50;99.90;;;;;;4989480;28;20069;-92
2023/11/12 11:13:01;;;;;;;13.55;10.50;;;7.40;99.90;;;;;;4992155;28;20037;-91
2023/11/12 11:15:55;;;;;;;11.90;9.07;;;7.40;99.90;;;;;;4990748;28;20026;-90
2023/11/12 11:18:32;;;;;;;10.52;9.43;;;7.40;99.90;;;;;;4997379;28;20114;-91
2023/11/12 11:21:05;;;;;;;11.80;8.60;;;7.30;99.90;;;;;;4996366;28;20042;-92
2023/11/12 11:23:41;;;;;;;10.18;8.90;;;7.30;99.90;;;;;;5003661;28;20026;-91
2023/11/12 11:26:33;;;;;;;11.68;9.05;;;7.30;99.90;;;;;;4999436;28;20026;-91
2023/11/12 11:29:10;;;;;;;11.73;9.80;;;7.30;99.90;;;;;;4994119;28;20038;-87
2023/11/12 11:31:38;;;;;;;16.33;11.20;;;7.30;99.90;;;;;;4994498;28;20109;-92
2023/11/12 11:34:08;;;;;;;14.70;11.55;;;7.30;99.90;;;;;;4992198;28;20022;-92
2023/11/12 11:36:34;;;;;;;13.60;11.63;;;7.20;99.90;;;;;;4992738;28;20117;-93
2023/11/12 11:39:07;;;;;;;12.07;10.77;;;7.20;99.90;;;;;;5002653;28;20018;-93
2023/11/12 11:41:42;;;;;;;16.15;11.95;;;7.20;99.90;;;;;;5013713;28;20041;-91
2023/11/12 11:44:39;;;;;;;12.13;10.50;;;7.30;99.90;;;;;;5000434;28;20518;-93
2023/11/12 11:47:26;;;;;;;14.05;10.73;;;7.20;99.90;;;;;;4996305;28;20177;-90
2023/11/12 11:49:57;;;;;;;16.73;11.27;;;7.20;99.90;;;;;;4995756;28;20493;-92
2023/11/12 11:52:25;;;;;;;14.40;10.95;;;7.20;99.90;;;;;;4992804;28;20048;-92
2023/11/12 11:55:24;;;;;;;19.85;13.98;;;8.70;99.90;;;;;;4989918;23;20054;-93
2023/11/12 11:57:53;;;;;;;23.77;16.42;;;6.90;99.90;;;;;;4975006;28;20039;-92
2023/11/12 12:00:19;;;;;;;25.08;16.15;;;7.60;99.90;;;;;;4976988;28;20018;-91
2023/11/12 12:02:46;;;;;;;26.15;16.63;;;7.20;99.90;;;;;;4979967;28;20403;-92
2023/11/12 12:05:32;;;;;;;26.20;17.70;;;8.70;99.90;;;;;;4979198;28;20033;-89
2023/11/12 12:08:13;;;;;;;27.50;18.75;;;7.20;99.90;;;;;;4984117;28;20086;-88
2023/11/12 12:10:45;;;;;;;27.30;19.27;;;8.80;99.90;;;;;;4981057;28;20026;-92
2023/11/12 12:13:15;;;;;;;25.60;16.75;;;8.00;99.90;;;;;;4990805;28;20030;-91
2023/11/12 12:15:48;;;;;;;25.35;16.92;;;8.00;99.90;;;;;;4975651;28;20158;-90
2023/11/12 12:18:22;;;;;;;25.20;16.48;;;8.50;99.90;;;;;;4974932;28;20023;-90
2023/11/12 12:20:48;;;;;;;27.88;16.77;;;6.80;99.90;;;;;;4969731;28;20046;-90
2023/11/12 12:23:13;;;;;;;29.75;18.58;;;8.20;99.90;;;;;;4980412;28;20625;-90
2023/11/12 12:25:53;;;;;;;25.77;17.02;;;7.20;99.90;;;;;;4984386;28;20138;-90
2023/11/12 12:28:20;;;;;;;25.85;17.40;;;7.20;99.90;;;;;;4981222;28;20038;-91
2023/11/12 12:30:52;;;;;;;31.90;18.80;;;8.10;99.90;;;;;;4980143;28;20035;-92
2023/11/12 12:33:18;;;;;;;32.10;17.58;;;7.20;99.90;;;;;;4981350;28;20081;-87
2023/11/12 12:36:13;;;;;;;29.13;15.68;;;7.50;99.90;;;;;;4987084;28;20026;-90
2023/11/12 12:38:59;;;;;;;30.83;15.43;;;7.40;99.90;;;;;;4983328;28;20514;-90
2023/11/12 12:41:37;;;;;;;24.33;16.83;;;7.50;99.90;;;;;;4977835;28;20027;-90
2023/11/12 12:44:04;;;;;;;24.55;15.40;;;8.30;99.90;;;;;;4995446;28;20542;-89
2023/11/12 12:46:45;;;;;;;28.63;16.85;;;7.20;99.90;;;;;;4981141;28;20067;-92
2023/11/12 12:49:32;;;;;;;26.90;16.50;;;7.20;99.90;;;;;;4995477;28;20554;-91
2023/11/12 12:52:23;;;;;;;25.45;16.75;;;7.80;99.90;;;;;;4996165;28;20390;-92